sensor_id;sensor_type;location;lat;lon;timestamp;temperature;humidity
42339;DHT22;27993;45.392;10.918;2023-02-28T00:02:11;5.20;99.90
42339;DHT22;27993;45.392;10.918;2023-02-28T00:04:42;5.20;99.90
42339;DHT22;27993;45.392;10.918;2023-02-28T00:07:13;5.10;99.90
42339;DHT22;27993;45.392;10.918;2023-02-28T00:09:43;5.10;99.90
42339;DHT22;27993;45.392;10.918;2023-02-28T00:12:14;5.20;99.90
42339;DHT22;27993;45.392;10.918;2023-02-28T00:14:44;5.20;99.90
42339;DHT22;27993;45.392;10.918;2023-02-28T00:17:15;5.00;99.90
42339;DHT22;27993;45.392;10.918;2023-02-28T00:19:48;5.00;99.90
42339;DHT22;27993;45.392;10.918;2023-02-28T00:22:20;5.00;99.90
42339;DHT22;27993;45.392;10.918;2023-02-28T00:24:51;4.90;99.90
42339;DHT22;27993;45.392;10.918;2023-02-28T00:27:22;5.00;99.90
42339;DHT22;27993;45.392;10.918;2023-02-28T00:29:52;4.90;99.90
42339;DHT22;27993;45.392;10.918;2023-02-28T00:32:24;5.00;99.90
42339;DHT22;27993;45.392;10.918;2023-02-28T00:34:55;4.90;99.90
42339;DHT22;27993;45.392;10.918;2023-02-28T00:37:26;4.90;99.90
42339;DHT22;27993;45.392;10.918;2023-02-28T00:39:56;5.00;99.90
42339;DHT22;27993;45.392;10.918;2023-02-28T00:42:27;4.90;99.90
42339;DHT22;27993;45.392;10.918;2023-02-28T00:44:57;4.90;99.90
42339;DHT22;27993;45.392;10.918;2023-02-28T00:47:28;4.90;99.90
42339;DHT22;27993;45.392;10.918;2023-02-28T00:49:59;4.80;99.80
42339;DHT22;27993;45.392;10.918;2023-02-28T00:52:29;4.80;99.90
42339;DHT22;27993;45.392;10.918;2023-02-28T00:55:00;4.80;99.90
42339;DHT22;27993;45.392;10.918;2023-02-28T00:57:31;4.80;99.90
42339;DHT22;27993;45.392;10.918;2023-02-28T01:00:01;4.70;99.90
42339;DHT22;27993;45.392;10.918;2023-02-28T01:02:32;4.70;99.90
42339;DHT22;27993;45.392;10.918;2023-02-28T01:05:03;4.70;99.90
42339;DHT22;27993;45.392;10.918;2023-02-28T01:07:33;4.70;99.90
42339;DHT22;27993;45.392;10.918;2023-02-28T01:10:04;4.70;99.90
42339;DHT22;27993;45.392;10.918;2023-02-28T01:12:35;4.80;99.90
42339;DHT22;27993;45.392;10.918;2023-02-28T01:15:06;4.80;99.70
42339;DHT22;27993;45.392;10.918;2023-02-28T01:17:36;4.80;99.80
42339;DHT22;27993;45.392;10.918;2023-02-28T01:20:08;4.80;99.80
42339;DHT22;27993;45.392;10.918;2023-02-28T01:22:38;4.80;99.90
42339;DHT22;27993;45.392;10.918;2023-02-28T01:25:09;4.80;99.90
42339;DHT22;27993;45.392;10.918;2023-02-28T01:27:39;4.80;99.90
42339;DHT22;27993;45.392;10.918;2023-02-28T01:30:10;4.70;99.90
42339;DHT22;27993;45.392;10.918;2023-02-28T01:32:41;4.70;99.90
42339;DHT22;27993;45.392;10.918;2023-02-28T01:35:11;4.70;99.90
42339;DHT22;27993;45.392;10.918;2023-02-28T01:37:42;4.60;99.90
42339;DHT22;27993;45.392;10.918;2023-02-28T01:40:13;4.70;99.90
42339;DHT22;27993;45.392;10.918;2023-02-28T01:42:44;4.70;99.90
42339;DHT22;27993;45.392;10.918;2023-02-28T01:47:53;4.40;99.90
42339;DHT22;27993;45.392;10.918;2023-02-28T01:50:28;4.50;99.90
42339;DHT22;27993;45.392;10.918;2023-02-28T01:53:02;4.60;99.90
42339;DHT22;27993;45.392;10.918;2023-02-28T01:55:36;4.60;99.90
42339;DHT22;27993;45.392;10.918;2023-02-28T01:58:07;4.60;99.90
42339;DHT22;27993;45.392;10.918;2023-02-28T02:00:39;4.60;99.90
42339;DHT22;27993;45.392;10.918;2023-02-28T02:03:15;4.50;99.90
42339;DHT22;27993;45.392;10.918;2023-02-28T02:05:49;4.30;99.90
42339;DHT22;27993;45.392;10.918;2023-02-28T02:08:23;4.10;99.90
42339;DHT22;27993;45.392;10.918;2023-02-28T02:10:57;4.00;99.90
42339;DHT22;27993;45.392;10.918;2023-02-28T02:16:27;4.30;99.90
42339;DHT22;27993;45.392;10.918;2023-02-28T02:28:18;4.30;99.90
42339;DHT22;27993;45.392;10.918;2023-02-28T02:36:02;4.50;99.90
42339;DHT22;27993;45.392;10.918;2023-02-28T02:38:50;4.60;99.90
42339;DHT22;27993;45.392;10.918;2023-02-28T02:41:52;4.50;99.90
42339;DHT22;27993;45.392;10.918;2023-02-28T02:47:16;4.50;99.90
42339;DHT22;27993;45.392;10.918;2023-02-28T02:49:52;4.40;99.90
42339;DHT22;27993;45.392;10.918;2023-02-28T02:52:32;4.50;99.90
42339;DHT22;27993;45.392;10.918;2023-02-28T02:55:06;4.60;99.90
42339;DHT22;27993;45.392;10.918;2023-02-28T02:57:51;4.60;99.90
42339;DHT22;27993;45.392;10.918;2023-02-28T03:00:27;4.60;99.90
42339;DHT22;27993;45.392;10.918;2023-02-28T03:03:01;4.60;99.90
42339;DHT22;27993;45.392;10.918;2023-02-28T03:05:45;4.70;99.90
42339;DHT22;27993;45.392;10.918;2023-02-28T03:08:16;4.70;99.90
42339;DHT22;27993;45.392;10.918;2023-02-28T03:10:52;4.80;99.90
42339;DHT22;27993;45.392;10.918;2023-02-28T03:30:47;4.40;99.90
42339;DHT22;27993;45.392;10.918;2023-02-28T03:33:28;4.50;99.90
42339;DHT22;27993;45.392;10.918;2023-02-28T03:36:07;4.50;99.90
42339;DHT22;27993;45.392;10.918;2023-02-28T03:41:47;4.40;99.90
42339;DHT22;27993;45.392;10.918;2023-02-28T03:44:24;4.50;99.90
42339;DHT22;27993;45.392;10.918;2023-02-28T03:47:17;4.50;99.90
42339;DHT22;27993;45.392;10.918;2023-02-28T03:50:04;4.50;99.90
42339;DHT22;27993;45.392;10.918;2023-02-28T03:52:44;4.50;99.90
42339;DHT22;27993;45.392;10.918;2023-02-28T03:55:17;4.50;99.90
42339;DHT22;27993;45.392;10.918;2023-02-28T04:00:29;4.40;99.90
42339;DHT22;27993;45.392;10.918;2023-02-28T04:03:02;4.40;99.90
42339;DHT22;27993;45.392;10.918;2023-02-28T04:05:49;4.30;99.90
42339;DHT22;27993;45.392;10.918;2023-02-28T04:08:21;4.20;99.90
42339;DHT22;27993;45.392;10.918;2023-02-28T04:10:57;4.20;99.90
42339;DHT22;27993;45.392;10.918;2023-02-28T04:13:28;4.10;99.90
42339;DHT22;27993;45.392;10.918;2023-02-28T04:15:59;4.10;99.90
42339;DHT22;27993;45.392;10.918;2023-02-28T04:18:29;4.00;99.90
42339;DHT22;27993;45.392;10.918;2023-02-28T04:21:00;4.00;99.90
42339;DHT22;27993;45.392;10.918;2023-02-28T04:23:31;4.10;99.90
42339;DHT22;27993;45.392;10.918;2023-02-28T04:26:02;4.00;99.90
42339;DHT22;27993;45.392;10.918;2023-02-28T04:28:34;4.00;99.90
42339;DHT22;27993;45.392;10.918;2023-02-28T04:31:05;4.10;99.90
42339;DHT22;27993;45.392;10.918;2023-02-28T04:33:36;4.00;99.90
42339;DHT22;27993;45.392;10.918;2023-02-28T04:36:08;4.00;99.90
42339;DHT22;27993;45.392;10.918;2023-02-28T04:38:38;3.90;99.90
42339;DHT22;27993;45.392;10.918;2023-02-28T04:41:09;3.90;99.90
42339;DHT22;27993;45.392;10.918;2023-02-28T04:43:40;4.00;99.90
42339;DHT22;27993;45.392;10.918;2023-02-28T04:46:10;4.00;99.90
42339;DHT22;27993;45.392;10.918;2023-02-28T04:48:41;3.80;99.90
42339;DHT22;27993;45.392;10.918;2023-02-28T04:51:16;3.80;99.90
42339;DHT22;27993;45.392;10.918;2023-02-28T04:53:48;3.60;99.90
42339;DHT22;27993;45.392;10.918;2023-02-28T04:56:19;3.60;99.90
42339;DHT22;27993;45.392;10.918;2023-02-28T04:58:50;3.80;99.90
42339;DHT22;27993;45.392;10.918;2023-02-28T05:01:27;4.00;99.90
42339;DHT22;27993;45.392;10.918;2023-02-28T05:04:00;4.00;99.90
42339;DHT22;27993;45.392;10.918;2023-02-28T05:06:33;4.00;99.90
42339;DHT22;27993;45.392;10.918;2023-02-28T05:09:03;4.00;99.90
42339;DHT22;27993;45.392;10.918;2023-02-28T05:11:34;4.00;99.90
42339;DHT22;27993;45.392;10.918;2023-02-28T05:14:11;4.00;99.90
42339;DHT22;27993;45.392;10.918;2023-02-28T05:16:42;4.10;99.90
42339;DHT22;27993;45.392;10.918;2023-02-28T05:19:13;4.00;99.90
42339;DHT22;27993;45.392;10.918;2023-02-28T05:21:52;3.90;99.90
42339;DHT22;27993;45.392;10.918;2023-02-28T05:24:22;4.10;99.90
42339;DHT22;27993;45.392;10.918;2023-02-28T05:26:54;4.20;99.90
42339;DHT22;27993;45.392;10.918;2023-02-28T05:29:25;4.10;99.90
42339;DHT22;27993;45.392;10.918;2023-02-28T05:31:55;4.10;99.90
42339;DHT22;27993;45.392;10.918;2023-02-28T05:34:26;4.20;99.90
42339;DHT22;27993;45.392;10.918;2023-02-28T05:36:56;4.20;99.90
42339;DHT22;27993;45.392;10.918;2023-02-28T05:39:27;4.20;99.90
42339;DHT22;27993;45.392;10.918;2023-02-28T05:41:57;4.20;99.90
42339;DHT22;27993;45.392;10.918;2023-02-28T05:44:28;4.30;99.90
42339;DHT22;27993;45.392;10.918;2023-02-28T05:46:58;4.30;99.90
42339;DHT22;27993;45.392;10.918;2023-02-28T05:49:29;4.30;99.90
42339;DHT22;27993;45.392;10.918;2023-02-28T05:52:00;4.30;99.90
42339;DHT22;27993;45.392;10.918;2023-02-28T05:54:30;4.10;99.90
42339;DHT22;27993;45.392;10.918;2023-02-28T05:57:01;4.00;99.90
42339;DHT22;27993;45.392;10.918;2023-02-28T05:59:31;4.00;99.90
42339;DHT22;27993;45.392;10.918;2023-02-28T06:02:02;4.10;99.90
42339;DHT22;27993;45.392;10.918;2023-02-28T06:04:33;4.00;99.90
42339;DHT22;27993;45.392;10.918;2023-02-28T06:07:04;4.00;99.90
42339;DHT22;27993;45.392;10.918;2023-02-28T06:09:35;4.10;99.90
42339;DHT22;27993;45.392;10.918;2023-02-28T06:12:06;4.20;99.90
42339;DHT22;27993;45.392;10.918;2023-02-28T06:14:37;4.20;99.90
42339;DHT22;27993;45.392;10.918;2023-02-28T06:17:08;4.30;99.90
42339;DHT22;27993;45.392;10.918;2023-02-28T06:19:39;4.40;99.90
42339;DHT22;27993;45.392;10.918;2023-02-28T06:22:11;4.60;99.90
42339;DHT22;27993;45.392;10.918;2023-02-28T06:24:42;4.60;99.90
42339;DHT22;27993;45.392;10.918;2023-02-28T06:27:12;4.70;99.90
42339;DHT22;27993;45.392;10.918;2023-02-28T06:29:43;5.00;99.90
42339;DHT22;27993;45.392;10.918;2023-02-28T06:32:13;5.10;99.90
42339;DHT22;27993;45.392;10.918;2023-02-28T06:34:44;5.20;99.90
42339;DHT22;27993;45.392;10.918;2023-02-28T06:37:15;5.40;99.90
42339;DHT22;27993;45.392;10.918;2023-02-28T06:39:45;5.50;99.90
42339;DHT22;27993;45.392;10.918;2023-02-28T06:42:16;5.70;99.90
42339;DHT22;27993;45.392;10.918;2023-02-28T06:44:47;5.90;99.70
42339;DHT22;27993;45.392;10.918;2023-02-28T06:47:17;6.20;99.50
42339;DHT22;27993;45.392;10.918;2023-02-28T06:49:48;6.20;99.30
42339;DHT22;27993;45.392;10.918;2023-02-28T06:52:19;6.30;99.70
42339;DHT22;27993;45.392;10.918;2023-02-28T06:54:49;6.60;99.20
42339;DHT22;27993;45.392;10.918;2023-02-28T06:57:31;6.80;99.00
42339;DHT22;27993;45.392;10.918;2023-02-28T07:00:06;6.60;98.90
42339;DHT22;27993;45.392;10.918;2023-02-28T07:02:38;6.60;99.10
42339;DHT22;27993;45.392;10.918;2023-02-28T07:05:08;7.20;98.90
42339;DHT22;27993;45.392;10.918;2023-02-28T07:07:39;7.40;98.70
42339;DHT22;27993;45.392;10.918;2023-02-28T07:10:13;7.30;98.40
42339;DHT22;27993;45.392;10.918;2023-02-28T07:12:47;7.70;98.00
42339;DHT22;27993;45.392;10.918;2023-02-28T07:15:17;7.60;97.80
42339;DHT22;27993;45.392;10.918;2023-02-28T07:17:48;7.40;97.40
42339;DHT22;27993;45.392;10.918;2023-02-28T07:20:18;7.40;97.90
42339;DHT22;27993;45.392;10.918;2023-02-28T07:22:50;7.60;98.00
42339;DHT22;27993;45.392;10.918;2023-02-28T07:25:27;7.90;98.00
42339;DHT22;27993;45.392;10.918;2023-02-28T07:27:58;8.40;97.10
42339;DHT22;27993;45.392;10.918;2023-02-28T07:30:29;7.90;97.10
42339;DHT22;27993;45.392;10.918;2023-02-28T07:32:59;8.90;96.50
42339;DHT22;27993;45.392;10.918;2023-02-28T07:35:30;9.10;97.30
42339;DHT22;27993;45.392;10.918;2023-02-28T07:38:01;8.90;96.50
42339;DHT22;27993;45.392;10.918;2023-02-28T07:40:34;8.90;96.10
42339;DHT22;27993;45.392;10.918;2023-02-28T07:43:05;9.10;96.30
42339;DHT22;27993;45.392;10.918;2023-02-28T07:45:35;9.90;96.50
42339;DHT22;27993;45.392;10.918;2023-02-28T07:48:06;9.20;96.00
42339;DHT22;27993;45.392;10.918;2023-02-28T07:50:37;10.00;96.10
42339;DHT22;27993;45.392;10.918;2023-02-28T07:53:07;9.20;95.90
42339;DHT22;27993;45.392;10.918;2023-02-28T07:55:38;9.40;95.20
42339;DHT22;27993;45.392;10.918;2023-02-28T07:58:09;9.10;96.30
42339;DHT22;27993;45.392;10.918;2023-02-28T08:00:39;9.60;95.90
42339;DHT22;27993;45.392;10.918;2023-02-28T08:03:13;10.10;94.90
42339;DHT22;27993;45.392;10.918;2023-02-28T08:05:44;10.20;96.00
42339;DHT22;27993;45.392;10.918;2023-02-28T08:08:15;10.40;94.50
42339;DHT22;27993;45.392;10.918;2023-02-28T08:10:46;10.20;95.60
42339;DHT22;27993;45.392;10.918;2023-02-28T08:13:17;9.10;95.20
42339;DHT22;27993;45.392;10.918;2023-02-28T08:15:48;9.50;95.20
42339;DHT22;27993;45.392;10.918;2023-02-28T08:18:18;9.60;95.30
42339;DHT22;27993;45.392;10.918;2023-02-28T08:20:49;9.50;95.00
42339;DHT22;27993;45.392;10.918;2023-02-28T08:23:20;9.60;96.00
42339;DHT22;27993;45.392;10.918;2023-02-28T08:25:54;10.40;95.80
42339;DHT22;27993;45.392;10.918;2023-02-28T08:28:25;10.90;95.40
42339;DHT22;27993;45.392;10.918;2023-02-28T08:30:56;10.20;94.40
42339;DHT22;27993;45.392;10.918;2023-02-28T08:33:27;10.70;95.40
42339;DHT22;27993;45.392;10.918;2023-02-28T08:35:58;11.20;94.10
42339;DHT22;27993;45.392;10.918;2023-02-28T08:38:28;11.70;93.60
42339;DHT22;27993;45.392;10.918;2023-02-28T08:41:01;11.70;93.70
42339;DHT22;27993;45.392;10.918;2023-02-28T08:43:33;10.70;93.90
42339;DHT22;27993;45.392;10.918;2023-02-28T08:46:05;11.10;94.20
42339;DHT22;27993;45.392;10.918;2023-02-28T08:48:36;11.10;93.50
42339;DHT22;27993;45.392;10.918;2023-02-28T08:51:11;11.60;93.60
42339;DHT22;27993;45.392;10.918;2023-02-28T08:53:41;12.40;92.10
42339;DHT22;27993;45.392;10.918;2023-02-28T08:56:13;11.10;92.50
42339;DHT22;27993;45.392;10.918;2023-02-28T08:58:47;11.60;94.20
42339;DHT22;27993;45.392;10.918;2023-02-28T09:01:24;11.80;92.90
42339;DHT22;27993;45.392;10.918;2023-02-28T09:03:56;12.30;91.80
42339;DHT22;27993;45.392;10.918;2023-02-28T09:06:27;11.60;93.10
42339;DHT22;27993;45.392;10.918;2023-02-28T09:08:58;11.60;92.20
42339;DHT22;27993;45.392;10.918;2023-02-28T09:11:29;12.10;92.60
42339;DHT22;27993;45.392;10.918;2023-02-28T09:14:00;12.60;93.50
42339;DHT22;27993;45.392;10.918;2023-02-28T09:16:33;12.30;92.20
42339;DHT22;27993;45.392;10.918;2023-02-28T09:19:04;11.70;92.80
42339;DHT22;27993;45.392;10.918;2023-02-28T09:21:34;12.60;92.50
42339;DHT22;27993;45.392;10.918;2023-02-28T09:24:06;13.10;91.20
42339;DHT22;27993;45.392;10.918;2023-02-28T09:26:37;12.90;91.10
42339;DHT22;27993;45.392;10.918;2023-02-28T09:29:08;12.50;91.50
42339;DHT22;27993;45.392;10.918;2023-02-28T09:31:39;13.00;92.00
42339;DHT22;27993;45.392;10.918;2023-02-28T09:34:10;13.20;90.80
42339;DHT22;27993;45.392;10.918;2023-02-28T09:36:40;13.60;91.10
42339;DHT22;27993;45.392;10.918;2023-02-28T09:39:11;11.90;91.30
42339;DHT22;27993;45.392;10.918;2023-02-28T09:41:44;12.70;92.00
42339;DHT22;27993;45.392;10.918;2023-02-28T09:44:34;14.00;90.30
42339;DHT22;27993;45.392;10.918;2023-02-28T09:47:39;13.60;90.30
42339;DHT22;27993;45.392;10.918;2023-02-28T09:52:57;13.50;90.10
42339;DHT22;27993;45.392;10.918;2023-02-28T09:55:38;12.30;90.60
42339;DHT22;27993;45.392;10.918;2023-02-28T09:58:56;13.20;89.80
42339;DHT22;27993;45.392;10.918;2023-02-28T10:01:09;15.30;88.30
42339;DHT22;27993;45.392;10.918;2023-02-28T10:03:59;15.70;86.50
42339;DHT22;27993;45.392;10.918;2023-02-28T10:06:38;15.70;86.70
42339;DHT22;27993;45.392;10.918;2023-02-28T10:09:15;15.60;86.10
42339;DHT22;27993;45.392;10.918;2023-02-28T10:11:48;15.30;84.90
42339;DHT22;27993;45.392;10.918;2023-02-28T10:14:26;14.80;87.30
42339;DHT22;27993;45.392;10.918;2023-02-28T10:17:03;15.20;85.20
42339;DHT22;27993;45.392;10.918;2023-02-28T10:19:43;15.90;85.80
42339;DHT22;27993;45.392;10.918;2023-02-28T10:24:53;16.50;85.80
42339;DHT22;27993;45.392;10.918;2023-02-28T10:27:27;16.60;83.00
42339;DHT22;27993;45.392;10.918;2023-02-28T10:30:00;16.10;82.90
42339;DHT22;27993;45.392;10.918;2023-02-28T10:32:36;15.90;82.90
42339;DHT22;27993;45.392;10.918;2023-02-28T10:37:51;15.50;83.00
42339;DHT22;27993;45.392;10.918;2023-02-28T10:43:05;14.90;82.50
42339;DHT22;27993;45.392;10.918;2023-02-28T10:45:36;15.80;83.40
42339;DHT22;27993;45.392;10.918;2023-02-28T10:50:44;16.70;82.10
42339;DHT22;27993;45.392;10.918;2023-02-28T11:04:02;16.00;81.80
42339;DHT22;27993;45.392;10.918;2023-02-28T11:06:34;16.30;81.20
42339;DHT22;27993;45.392;10.918;2023-02-28T11:09:25;17.80;79.40
42339;DHT22;27993;45.392;10.918;2023-02-28T11:12:00;15.60;80.10
42339;DHT22;27993;45.392;10.918;2023-02-28T11:14:40;15.20;80.40
42339;DHT22;27993;45.392;10.918;2023-02-28T11:17:22;14.60;81.40
42339;DHT22;27993;45.392;10.918;2023-02-28T11:20:06;14.80;82.90
42339;DHT22;27993;45.392;10.918;2023-02-28T11:22:43;15.70;81.20
42339;DHT22;27993;45.392;10.918;2023-02-28T11:25:25;15.00;79.00
42339;DHT22;27993;45.392;10.918;2023-02-28T11:27:58;13.10;82.40
42339;DHT22;27993;45.392;10.918;2023-02-28T11:30:37;12.40;83.70
42339;DHT22;27993;45.392;10.918;2023-02-28T11:33:30;12.40;85.40
42339;DHT22;27993;45.392;10.918;2023-02-28T11:36:08;12.30;85.20
42339;DHT22;27993;45.392;10.918;2023-02-28T11:38:40;11.80;86.10
42339;DHT22;27993;45.392;10.918;2023-02-28T11:46:50;12.40;83.70
42339;DHT22;27993;45.392;10.918;2023-02-28T11:52:52;12.30;82.90
42339;DHT22;27993;45.392;10.918;2023-02-28T12:07:22;12.00;85.60
42339;DHT22;27993;45.392;10.918;2023-02-28T12:10:04;12.20;85.60
42339;DHT22;27993;45.392;10.918;2023-02-28T12:12:49;11.80;85.80
42339;DHT22;27993;45.392;10.918;2023-02-28T12:18:53;11.80;87.90
42339;DHT22;27993;45.392;10.918;2023-02-28T12:24:28;12.00;88.00
42339;DHT22;27993;45.392;10.918;2023-02-28T12:27:07;12.30;86.60
42339;DHT22;27993;45.392;10.918;2023-02-28T12:29:52;11.50;87.50
42339;DHT22;27993;45.392;10.918;2023-02-28T12:32:37;11.90;88.10
42339;DHT22;27993;45.392;10.918;2023-02-28T12:37:50;12.20;88.90
42339;DHT22;27993;45.392;10.918;2023-02-28T12:40:25;11.70;86.80
42339;DHT22;27993;45.392;10.918;2023-02-28T12:43:02;11.20;88.00
42339;DHT22;27993;45.392;10.918;2023-02-28T12:45:48;11.10;88.20
42339;DHT22;27993;45.392;10.918;2023-02-28T12:48:40;11.00;88.40
42339;DHT22;27993;45.392;10.918;2023-02-28T12:51:14;11.20;88.70
42339;DHT22;27993;45.392;10.918;2023-02-28T12:56:47;11.50;89.20
42339;DHT22;27993;45.392;10.918;2023-02-28T13:04:57;11.40;89.90
42339;DHT22;27993;45.392;10.918;2023-02-28T13:10:17;11.20;90.10
42339;DHT22;27993;45.392;10.918;2023-02-28T13:12:51;11.30;90.70
42339;DHT22;27993;45.392;10.918;2023-02-28T13:15:25;11.40;90.40
42339;DHT22;27993;45.392;10.918;2023-02-28T13:17:59;11.30;90.70
42339;DHT22;27993;45.392;10.918;2023-02-28T13:20:36;11.70;90.30
42339;DHT22;27993;45.392;10.918;2023-02-28T13:26:17;11.80;90.40
42339;DHT22;27993;45.392;10.918;2023-02-28T13:31:19;11.50;89.80
42339;DHT22;27993;45.392;10.918;2023-02-28T13:36:32;11.30;91.00
42339;DHT22;27993;45.392;10.918;2023-02-28T13:39:44;11.30;90.00
42339;DHT22;27993;45.392;10.918;2023-02-28T13:53:30;11.30;90.40
42339;DHT22;27993;45.392;10.918;2023-02-28T13:56:41;11.40;92.10
42339;DHT22;27993;45.392;10.918;2023-02-28T13:59:31;11.50;91.30
42339;DHT22;27993;45.392;10.918;2023-02-28T14:05:18;11.30;91.40
42339;DHT22;27993;45.392;10.918;2023-02-28T14:07:53;11.20;91.90
42339;DHT22;27993;45.392;10.918;2023-02-28T14:10:39;11.20;91.60
42339;DHT22;27993;45.392;10.918;2023-02-28T14:16:05;11.20;91.80
42339;DHT22;27993;45.392;10.918;2023-02-28T14:18:38;11.10;91.60
42339;DHT22;27993;45.392;10.918;2023-02-28T14:21:26;11.30;91.80
42339;DHT22;27993;45.392;10.918;2023-02-28T14:35:29;10.90;92.00
42339;DHT22;27993;45.392;10.918;2023-02-28T14:38:08;10.90;92.10
42339;DHT22;27993;45.392;10.918;2023-02-28T14:40:44;10.90;92.30
42339;DHT22;27993;45.392;10.918;2023-02-28T14:43:20;11.00;92.40
42339;DHT22;27993;45.392;10.918;2023-02-28T14:45:54;11.00;92.10
42339;DHT22;27993;45.392;10.918;2023-02-28T14:48:25;10.90;91.70
42339;DHT22;27993;45.392;10.918;2023-02-28T14:51:01;10.70;92.10
42339;DHT22;27993;45.392;10.918;2023-02-28T14:53:36;10.70;92.40
42339;DHT22;27993;45.392;10.918;2023-02-28T14:56:22;10.80;92.30
42339;DHT22;27993;45.392;10.918;2023-02-28T14:58:55;10.80;92.00
42339;DHT22;27993;45.392;10.918;2023-02-28T15:01:26;10.60;92.70
42339;DHT22;27993;45.392;10.918;2023-02-28T15:04:00;10.60;92.50
42339;DHT22;27993;45.392;10.918;2023-02-28T15:06:32;10.70;92.70
42339;DHT22;27993;45.392;10.918;2023-02-28T15:09:15;10.80;92.90
42339;DHT22;27993;45.392;10.918;2023-02-28T15:11:48;10.80;92.90
42339;DHT22;27993;45.392;10.918;2023-02-28T15:14:21;10.80;92.60
42339;DHT22;27993;45.392;10.918;2023-02-28T15:16:57;10.80;92.20
42339;DHT22;27993;45.392;10.918;2023-02-28T15:19:32;10.80;92.30
42339;DHT22;27993;45.392;10.918;2023-02-28T15:22:18;10.90;92.70
42339;DHT22;27993;45.392;10.918;2023-02-28T15:24:51;10.80;92.70
42339;DHT22;27993;45.392;10.918;2023-02-28T15:27:28;10.80;92.40
42339;DHT22;27993;45.392;10.918;2023-02-28T15:30:07;10.80;93.20
42339;DHT22;27993;45.392;10.918;2023-02-28T15:32:39;10.70;93.60
42339;DHT22;27993;45.392;10.918;2023-02-28T15:37:57;10.80;93.20
42339;DHT22;27993;45.392;10.918;2023-02-28T15:40:40;10.70;93.30
42339;DHT22;27993;45.392;10.918;2023-02-28T15:43:15;10.70;93.90
42339;DHT22;27993;45.392;10.918;2023-02-28T15:45:57;10.70;94.10
42339;DHT22;27993;45.392;10.918;2023-02-28T15:48:51;10.70;94.30
42339;DHT22;27993;45.392;10.918;2023-02-28T15:51:33;10.50;94.50
42339;DHT22;27993;45.392;10.918;2023-02-28T15:54:07;10.40;94.70
42339;DHT22;27993;45.392;10.918;2023-02-28T15:56:44;10.50;94.60
42339;DHT22;27993;45.392;10.918;2023-02-28T15:59:18;10.50;94.80
42339;DHT22;27993;45.392;10.918;2023-02-28T16:04:57;10.40;94.70
42339;DHT22;27993;45.392;10.918;2023-02-28T16:07:28;10.40;94.70
42339;DHT22;27993;45.392;10.918;2023-02-28T16:09:59;10.40;95.00
42339;DHT22;27993;45.392;10.918;2023-02-28T16:12:32;10.40;94.80
42339;DHT22;27993;45.392;10.918;2023-02-28T16:17:52;10.20;94.60
42339;DHT22;27993;45.392;10.918;2023-02-28T16:20:29;10.10;94.70
42339;DHT22;27993;45.392;10.918;2023-02-28T16:23:00;10.00;94.90
42339;DHT22;27993;45.392;10.918;2023-02-28T16:25:40;10.00;95.20
42339;DHT22;27993;45.392;10.918;2023-02-28T16:30:54;10.00;94.80
42339;DHT22;27993;45.392;10.918;2023-02-28T16:33:24;9.90;95.00
42339;DHT22;27993;45.392;10.918;2023-02-28T16:35:55;9.90;94.80
42339;DHT22;27993;45.392;10.918;2023-02-28T16:38:26;9.80;94.80
42339;DHT22;27993;45.392;10.918;2023-02-28T16:40:59;9.80;94.90
42339;DHT22;27993;45.392;10.918;2023-02-28T16:43:30;9.70;95.20
42339;DHT22;27993;45.392;10.918;2023-02-28T16:46:00;9.70;95.20
42339;DHT22;27993;45.392;10.918;2023-02-28T16:48:33;9.60;95.10
42339;DHT22;27993;45.392;10.918;2023-02-28T16:51:04;9.50;95.40
42339;DHT22;27993;45.392;10.918;2023-02-28T16:53:34;9.50;95.50
42339;DHT22;27993;45.392;10.918;2023-02-28T16:56:06;9.50;95.70
42339;DHT22;27993;45.392;10.918;2023-02-28T16:58:37;9.40;95.90
42339;DHT22;27993;45.392;10.918;2023-02-28T17:01:08;9.40;96.00
42339;DHT22;27993;45.392;10.918;2023-02-28T17:03:38;9.30;96.20
42339;DHT22;27993;45.392;10.918;2023-02-28T17:06:15;9.30;96.40
42339;DHT22;27993;45.392;10.918;2023-02-28T17:08:46;9.20;96.60
42339;DHT22;27993;45.392;10.918;2023-02-28T17:11:17;9.20;96.80
42339;DHT22;27993;45.392;10.918;2023-02-28T17:13:48;9.10;97.00
42339;DHT22;27993;45.392;10.918;2023-02-28T17:16:27;9.10;97.20
42339;DHT22;27993;45.392;10.918;2023-02-28T17:19:01;9.10;97.20
42339;DHT22;27993;45.392;10.918;2023-02-28T17:21:32;9.00;97.40
42339;DHT22;27993;45.392;10.918;2023-02-28T17:24:04;9.00;97.70
42339;DHT22;27993;45.392;10.918;2023-02-28T17:26:35;8.90;97.80
42339;DHT22;27993;45.392;10.918;2023-02-28T17:29:18;8.90;98.10
42339;DHT22;27993;45.392;10.918;2023-02-28T17:31:49;8.70;98.20
42339;DHT22;27993;45.392;10.918;2023-02-28T17:34:20;8.70;98.30
42339;DHT22;27993;45.392;10.918;2023-02-28T17:36:51;8.60;98.30
42339;DHT22;27993;45.392;10.918;2023-02-28T17:39:22;8.60;98.40
42339;DHT22;27993;45.392;10.918;2023-02-28T17:41:56;8.50;99.10
42339;DHT22;27993;45.392;10.918;2023-02-28T17:44:26;8.50;98.90
42339;DHT22;27993;45.392;10.918;2023-02-28T17:46:58;8.50;99.10
42339;DHT22;27993;45.392;10.918;2023-02-28T17:49:29;8.50;99.50
42339;DHT22;27993;45.392;10.918;2023-02-28T17:52:00;8.40;99.60
42339;DHT22;27993;45.392;10.918;2023-02-28T17:54:30;8.40;99.90
42339;DHT22;27993;45.392;10.918;2023-02-28T17:57:01;8.40;99.90
42339;DHT22;27993;45.392;10.918;2023-02-28T17:59:32;8.30;99.90
42339;DHT22;27993;45.392;10.918;2023-02-28T18:02:06;8.20;99.90
42339;DHT22;27993;45.392;10.918;2023-02-28T18:04:36;8.20;99.90
42339;DHT22;27993;45.392;10.918;2023-02-28T18:07:09;8.20;99.90
42339;DHT22;27993;45.392;10.918;2023-02-28T18:09:41;8.20;99.90
42339;DHT22;27993;45.392;10.918;2023-02-28T18:12:12;8.00;99.90
42339;DHT22;27993;45.392;10.918;2023-02-28T18:14:42;8.00;99.90
42339;DHT22;27993;45.392;10.918;2023-02-28T18:17:13;8.00;99.90
42339;DHT22;27993;45.392;10.918;2023-02-28T18:19:43;7.90;99.90
42339;DHT22;27993;45.392;10.918;2023-02-28T18:22:14;7.80;99.90
42339;DHT22;27993;45.392;10.918;2023-02-28T18:24:45;7.80;99.90
42339;DHT22;27993;45.392;10.918;2023-02-28T18:27:15;7.80;99.90
42339;DHT22;27993;45.392;10.918;2023-02-28T18:29:46;7.80;99.90
42339;DHT22;27993;45.392;10.918;2023-02-28T18:32:18;7.80;99.90
42339;DHT22;27993;45.392;10.918;2023-02-28T18:34:49;7.70;99.90
42339;DHT22;27993;45.392;10.918;2023-02-28T18:37:20;7.60;99.90
42339;DHT22;27993;45.392;10.918;2023-02-28T18:39:50;7.50;99.90
42339;DHT22;27993;45.392;10.918;2023-02-28T18:42:21;7.50;99.90
42339;DHT22;27993;45.392;10.918;2023-02-28T18:44:51;7.50;99.90
42339;DHT22;27993;45.392;10.918;2023-02-28T18:47:22;7.50;99.90